Friedensburg, Pennsylvania
Current Conditions -  °F | °C
As of 9:58 AM on Thursday 18 Dec 2014 (Local Time) from KMUI Reporting Station
Overcast Overcast  
Wind Chill: 27°   Ceiling: 3000
Heat Index: 33°   Visibility: 10mi
Dew Point: 24°   Wind: 6mph
Humidity: 72%   Direction: 210°SSW
Pressure: 30.1"   Gusts: NA
Location:  40.6°N, 76.24°W
Report Text: KMUI 181458Z AUTO 21005KT 10SM OVC030 00/M04 A3010 RMK AO2 RAE1403 SLP201 P0000 60000 T00031043 51012
Loading
Personal Weather Stations






























Interactive Weather Map New forecast layout! Learn more

10-Day Weather Forecast

Advertisements
Track Severe Weather on mobile